createdAt,value
2022-11-10T00:00:00.594Z,1.30
2022-11-10T00:02:27.298Z,1.20
2022-11-10T00:04:54.003Z,1.20
2022-11-10T00:07:26.269Z,1.50
2022-11-10T00:09:53.377Z,1.60
2022-11-10T00:12:22.148Z,0.88
2022-11-10T00:15:07.272Z,1.08
2022-11-10T00:17:37.525Z,1.10
2022-11-10T00:20:05.986Z,0.95
2022-11-10T00:22:35.190Z,1.08
2022-11-10T00:25:02.287Z,1.10
2022-11-10T00:27:29.063Z,1.33
2022-11-10T00:29:55.842Z,1.17
2022-11-10T00:32:22.586Z,1.10
2022-11-10T00:34:49.469Z,1.13
2022-11-10T00:37:16.661Z,1.25
2022-11-10T00:39:43.448Z,1.10
2022-11-10T00:42:10.415Z,1.23
2022-11-10T00:44:37.594Z,1.20
2022-11-10T00:47:04.363Z,1.10
2022-11-10T00:49:31.086Z,1.60
2022-11-10T00:51:58.601Z,1.20
2022-11-10T00:54:25.846Z,1.13
2022-11-10T00:56:52.566Z,1.27
2022-11-10T00:59:19.284Z,1.17
2022-11-10T01:01:46.172Z,1.40
2022-11-10T01:04:12.962Z,1.13
2022-11-10T01:06:39.781Z,1.30
2022-11-10T01:09:06.653Z,1.10
2022-11-10T01:11:33.594Z,0.90
2022-11-10T01:14:00.311Z,1.20
2022-11-10T01:16:31.225Z,1.40
2022-11-10T01:19:03.341Z,1.20
2022-11-10T01:21:31.171Z,1.00
2022-11-10T01:23:58.185Z,1.20
2022-11-10T01:26:25.965Z,1.33
2022-11-10T01:28:52.806Z,1.10
2022-11-10T01:31:21.768Z,0.98
2022-11-10T01:33:48.753Z,1.05
2022-11-10T01:36:15.537Z,1.20
2022-11-10T01:38:43.427Z,1.05
2022-11-10T01:41:14.383Z,1.20
2022-11-10T01:43:41.900Z,1.02
2022-11-10T01:46:12.120Z,1.17
2022-11-10T01:48:53.173Z,1.25
2022-11-10T01:51:42.721Z,1.00
2022-11-10T01:54:19.527Z,1.23
2022-11-10T01:56:51.841Z,1.10
2022-11-10T01:59:27.614Z,0.90
2022-11-10T02:02:06.798Z,1.10
2022-11-10T02:04:34.757Z,1.38
2022-11-10T02:07:01.918Z,1.20
2022-11-10T02:09:28.782Z,1.00
2022-11-10T02:11:56.909Z,1.25
2022-11-10T02:14:23.816Z,1.00
2022-11-10T02:16:50.726Z,1.10
2022-11-10T02:19:24.962Z,0.95
2022-11-10T02:21:51.907Z,1.10
2022-11-10T02:24:18.673Z,0.80
2022-11-10T02:26:55.939Z,1.08
2022-11-10T02:29:25.459Z,1.45
2022-11-10T02:31:52.495Z,0.93
2022-11-10T02:34:19.334Z,1.17
2022-11-10T02:36:46.097Z,1.10
2022-11-10T02:39:12.796Z,1.35
2022-11-10T02:41:39.583Z,1.33
2022-11-10T02:44:07.939Z,1.40
2022-11-10T02:46:37.460Z,1.10
2022-11-10T02:49:04.295Z,1.10
2022-11-10T02:51:31.090Z,0.90
2022-11-10T02:53:57.830Z,0.93
2022-11-10T02:56:24.931Z,1.13
2022-11-10T02:58:51.711Z,1.10
2022-11-10T03:01:18.500Z,1.13
2022-11-10T03:03:45.346Z,1.35
2022-11-10T03:06:13.288Z,1.20
2022-11-10T03:08:40.101Z,1.02
2022-11-10T03:11:06.852Z,1.02
2022-11-10T03:13:51.747Z,1.35
2022-11-10T03:16:20.451Z,1.35
2022-11-10T03:18:47.138Z,1.10
2022-11-10T03:21:13.854Z,1.00
2022-11-10T03:23:40.669Z,1.17
2022-11-10T03:26:07.898Z,1.08
2022-11-10T03:28:34.975Z,1.10
2022-11-10T03:31:01.745Z,1.60
2022-11-10T03:33:28.504Z,1.40
2022-11-10T03:35:55.233Z,1.50
2022-11-10T03:38:22.041Z,1.83
2022-11-10T03:41:17.607Z,1.38
2022-11-10T03:43:38.076Z,1.35
2022-11-10T03:46:04.880Z,1.40
2022-11-10T03:48:31.608Z,1.30
2022-11-10T03:50:58.323Z,1.38
2022-11-10T03:53:25.258Z,1.20
2022-11-10T03:55:52.140Z,1.17
2022-11-10T03:58:18.923Z,1.30
2022-11-10T04:00:45.690Z,1.67
2022-11-10T04:03:12.444Z,1.30
2022-11-10T04:05:57.951Z,1.55
2022-11-10T04:08:43.124Z,1.55
2022-11-10T04:11:10.308Z,1.10
2022-11-10T04:13:57.290Z,1.40
2022-11-10T04:16:24.071Z,1.13
2022-11-10T04:18:50.794Z,1.40
2022-11-10T04:21:17.614Z,1.20
2022-11-10T04:23:44.380Z,1.17
2022-11-10T04:26:29.785Z,1.48
2022-11-10T04:29:00.416Z,1.25
2022-11-10T04:31:30.163Z,1.33
2022-11-10T04:33:58.238Z,1.20
2022-11-10T04:36:29.342Z,1.60
2022-11-10T04:38:56.719Z,1.38
2022-11-10T04:41:26.689Z,1.33
2022-11-10T04:43:53.843Z,1.45
2022-11-10T04:46:36.896Z,1.85
2022-11-10T04:49:06.637Z,1.10
2022-11-10T04:51:37.401Z,1.85
2022-11-10T04:54:06.747Z,1.23
2022-11-10T04:56:34.791Z,1.15
2022-11-10T04:59:01.786Z,1.42
2022-11-10T05:01:29.577Z,1.30
2022-11-10T05:03:56.690Z,1.52
2022-11-10T05:06:24.491Z,1.50
2022-11-10T05:08:51.920Z,1.23
2022-11-10T05:11:19.249Z,1.30
2022-11-10T05:13:46.319Z,1.52
2022-11-10T05:16:13.711Z,1.30
2022-11-10T05:18:41.395Z,1.40
2022-11-10T05:21:08.427Z,1.73
2022-11-10T05:23:38.302Z,1.40
2022-11-10T05:26:15.296Z,1.58
2022-11-10T05:28:45.335Z,1.50
2022-11-10T05:31:12.877Z,1.70
2022-11-10T05:33:40.420Z,1.42
2022-11-10T05:36:08.206Z,1.33
2022-11-10T05:38:39.052Z,1.30
2022-11-10T05:41:07.158Z,1.17
2022-11-10T05:43:33.881Z,1.55
2022-11-10T05:46:00.717Z,1.30
2022-11-10T05:48:27.474Z,1.40
2022-11-10T05:50:54.227Z,1.40
2022-11-10T05:53:21.136Z,1.38
2022-11-10T05:55:48.107Z,1.70
2022-11-10T05:58:14.980Z,1.00
2022-11-10T06:00:41.729Z,1.73
2022-11-10T06:03:18.179Z,1.40
2022-11-10T06:05:45.696Z,1.63
2022-11-10T06:08:12.930Z,1.80
2022-11-10T06:10:40.549Z,1.60
2022-11-10T06:13:07.442Z,1.45
2022-11-10T06:15:34.616Z,1.50
2022-11-10T06:18:01.455Z,1.70
2022-11-10T06:20:28.774Z,1.30
2022-11-10T06:23:02.808Z,1.90
2022-11-10T06:25:32.823Z,1.63
2022-11-10T06:28:00.122Z,1.67
2022-11-10T06:30:29.132Z,1.70
2022-11-10T06:32:56.027Z,2.25
2022-11-10T06:35:24.296Z,1.88
2022-11-10T06:38:02.263Z,2.15
2022-11-10T06:40:30.023Z,2.28
2022-11-10T06:42:57.280Z,1.92
2022-11-10T06:45:24.996Z,2.30
2022-11-10T06:48:11.127Z,2.28
2022-11-10T06:50:38.031Z,2.72
2022-11-10T06:53:05.202Z,2.97
2022-11-10T06:55:32.515Z,3.05
2022-11-10T06:57:59.559Z,2.63
2022-11-10T07:00:28.632Z,1.83
2022-11-10T07:03:07.180Z,1.77
2022-11-10T07:05:36.697Z,2.03
2022-11-10T07:08:15.991Z,1.67
2022-11-10T07:10:45.067Z,1.70
2022-11-10T07:13:12.353Z,1.73
2022-11-10T07:15:39.185Z,1.98
2022-11-10T07:18:06.056Z,2.15
2022-11-10T07:20:33.105Z,2.05
2022-11-10T07:23:02.252Z,1.98
2022-11-10T07:25:32.239Z,1.88
2022-11-10T07:28:02.226Z,1.80
2022-11-10T07:30:31.578Z,1.85
2022-11-10T07:33:05.080Z,1.92
2022-11-10T07:35:34.286Z,3.08
2022-11-10T07:38:12.169Z,2.40
2022-11-10T07:40:39.264Z,2.60
2022-11-10T07:43:06.325Z,2.25
2022-11-10T07:45:35.952Z,1.77
2022-11-10T07:48:06.199Z,1.98
2022-11-10T07:50:36.455Z,2.00
2022-11-10T07:53:10.665Z,1.60
2022-11-10T07:55:40.398Z,1.70
2022-11-10T07:58:08.332Z,2.00
2022-11-10T08:00:37.673Z,1.90
2022-11-10T08:03:17.823Z,2.20
2022-11-10T08:05:45.544Z,2.08
2022-11-10T08:08:13.448Z,2.28
2022-11-10T08:10:41.938Z,2.22
2022-11-10T08:13:12.460Z,1.92
2022-11-10T08:15:40.540Z,2.20
2022-11-10T08:18:17.302Z,1.88
2022-11-10T08:20:44.712Z,1.77
2022-11-10T08:23:12.651Z,2.20
2022-11-10T08:25:40.176Z,2.00
2022-11-10T08:28:09.684Z,2.15
2022-11-10T08:30:38.957Z,2.30
2022-11-10T08:33:08.436Z,1.77
2022-11-10T08:35:41.978Z,1.90
2022-11-10T08:38:21.331Z,2.40
2022-11-10T08:40:48.963Z,3.08
2022-11-10T08:43:18.044Z,1.70
2022-11-10T08:45:45.792Z,2.10
2022-11-10T08:48:19.839Z,2.38
2022-11-10T08:50:49.660Z,2.03
2022-11-10T08:53:20.948Z,2.22
2022-11-10T08:55:48.249Z,2.03
2022-11-10T08:58:18.863Z,1.63
2022-11-10T09:00:46.274Z,2.50
2022-11-10T09:03:17.114Z,2.20
2022-11-10T09:05:44.376Z,2.60
2022-11-10T09:08:11.578Z,2.20
2022-11-10T09:10:42.945Z,1.90
2022-11-10T09:13:12.249Z,1.98
2022-11-10T09:15:40.124Z,2.67
2022-11-10T09:18:08.919Z,2.10
2022-11-10T09:20:37.354Z,2.78
2022-11-10T09:23:18.788Z,2.38
2022-11-10T09:25:55.369Z,2.72
2022-11-10T09:28:23.537Z,2.58
2022-11-10T09:30:51.787Z,2.38
2022-11-10T09:33:18.668Z,2.42
2022-11-10T09:35:45.622Z,2.15
2022-11-10T09:38:12.994Z,2.10
2022-11-10T09:41:05.057Z,1.95
2022-11-10T09:44:03.180Z,2.22
2022-11-10T09:46:37.922Z,2.17
2022-11-10T09:49:36.558Z,2.20
2022-11-10T09:52:05.007Z,1.98
2022-11-10T09:54:53.691Z,2.30
2022-11-10T09:57:26.644Z,1.88
2022-11-10T09:59:54.794Z,2.50
2022-11-10T10:02:31.582Z,2.60
2022-11-10T10:05:33.742Z,1.88
2022-11-10T10:08:08.714Z,2.20
2022-11-10T10:10:47.204Z,2.58
2022-11-10T10:13:52.436Z,2.00
2022-11-10T10:17:00.285Z,2.47
2022-11-10T10:19:45.727Z,2.17
2022-11-10T10:23:00.950Z,2.38
2022-11-10T10:25:28.806Z,2.35
2022-11-10T10:28:07.892Z,2.05
2022-11-10T10:30:34.643Z,2.00
2022-11-10T10:33:21.033Z,1.80
2022-11-10T10:35:50.878Z,2.15
2022-11-10T10:38:39.476Z,1.88
2022-11-10T10:41:37.077Z,2.05
2022-11-10T10:44:13.430Z,1.90
2022-11-10T10:46:50.339Z,2.22
2022-11-10T10:49:29.525Z,2.20
2022-11-10T10:52:06.468Z,2.28
2022-11-10T10:54:36.930Z,2.90
2022-11-10T10:57:20.802Z,1.80
2022-11-10T10:59:47.701Z,1.73
2022-11-10T11:02:32.962Z,2.17
2022-11-10T11:05:15.260Z,1.75
2022-11-10T11:07:55.225Z,2.08
2022-11-10T11:10:34.196Z,2.13
2022-11-10T11:13:25.853Z,2.42
2022-11-10T11:16:09.465Z,1.90
2022-11-10T11:18:40.938Z,2.05
2022-11-10T11:21:37.308Z,1.98
2022-11-10T11:24:38.106Z,2.05
2022-11-10T11:27:29.754Z,2.65
2022-11-10T11:30:09.485Z,2.60
2022-11-10T11:33:04.946Z,1.92
2022-11-10T11:35:53.586Z,2.20
2022-11-10T11:38:42.647Z,2.53
2022-11-10T11:41:43.941Z,1.95
2022-11-10T11:44:22.486Z,2.05
2022-11-10T11:47:13.714Z,2.10
2022-11-10T11:50:23.722Z,1.80
2022-11-10T11:53:41.669Z,3.03
2022-11-10T11:56:19.699Z,1.90
2022-11-10T11:59:10.989Z,2.30
2022-11-10T12:02:30.715Z,1.70
2022-11-10T12:05:34.236Z,2.28
2022-11-10T12:08:43.958Z,2.50
2022-11-10T12:11:45.223Z,2.13
2022-11-10T12:14:27.271Z,2.25
2022-11-10T12:17:26.774Z,1.88
2022-11-10T12:20:13.045Z,1.80
2022-11-10T12:23:31.333Z,1.67
2022-11-10T12:26:39.199Z,1.85
2022-11-10T12:29:22.208Z,1.77
2022-11-10T12:31:55.792Z,1.50
2022-11-10T12:34:40.624Z,1.42
2022-11-10T12:37:17.539Z,1.38
2022-11-10T12:40:01.704Z,1.50
2022-11-10T12:45:20.235Z,1.88
2022-11-10T12:47:48.171Z,1.92
2022-11-10T12:51:03.017Z,2.33
2022-11-10T12:53:35.383Z,3.08
2022-11-10T12:56:25.963Z,1.90
2022-11-10T12:59:20.768Z,1.90
2022-11-10T13:02:31.996Z,1.83
2022-11-10T13:05:28.463Z,1.98
2022-11-10T13:08:27.160Z,1.80
2022-11-10T13:11:12.012Z,1.85
2022-11-10T13:13:47.501Z,2.08
2022-11-10T13:16:47.323Z,2.10
2022-11-10T13:19:23.377Z,1.52
2022-11-10T13:21:52.883Z,1.70
2022-11-10T13:24:33.738Z,1.70
2022-11-10T13:27:01.660Z,1.77
2022-11-10T13:29:48.085Z,1.85
2022-11-10T13:32:14.744Z,1.50
2022-11-10T13:34:44.283Z,1.50
2022-11-10T13:37:29.583Z,1.60
2022-11-10T13:40:25.339Z,1.10
2022-11-10T13:42:58.179Z,1.40
2022-11-10T13:45:36.817Z,1.27
2022-11-10T13:48:18.497Z,1.42
2022-11-10T13:51:15.839Z,1.60
2022-11-10T13:54:36.038Z,1.33
2022-11-10T13:57:40.863Z,1.98
2022-11-10T14:00:17.162Z,1.50
2022-11-10T14:03:07.910Z,2.17
2022-11-10T14:05:38.556Z,1.80
2022-11-10T14:08:23.780Z,1.88
2022-11-10T14:10:58.695Z,1.92
2022-11-10T14:13:45.688Z,1.70
2022-11-10T14:16:23.888Z,1.48
2022-11-10T14:19:34.728Z,1.70
2022-11-10T14:22:29.873Z,1.42
2022-11-10T14:25:25.378Z,1.50
2022-11-10T14:27:57.710Z,1.30
2022-11-10T14:30:27.946Z,1.30
2022-11-10T14:33:06.311Z,1.20
2022-11-10T14:36:02.830Z,1.45
2022-11-10T14:38:37.222Z,1.65
2022-11-10T14:41:06.696Z,1.65
2022-11-10T14:43:39.043Z,1.40
2022-11-10T14:46:07.538Z,1.48
2022-11-10T14:48:38.691Z,1.63
2022-11-10T14:51:15.728Z,1.67
2022-11-10T14:53:52.152Z,1.48
2022-11-10T14:56:23.410Z,1.95
2022-11-10T14:58:50.814Z,2.10
2022-11-10T15:01:33.792Z,1.50
2022-11-10T15:04:06.689Z,1.65
2022-11-10T15:06:34.818Z,1.83
2022-11-10T15:09:22.890Z,1.80
2022-11-10T15:12:07.554Z,1.50
2022-11-10T15:14:44.645Z,1.60
2022-11-10T15:17:18.564Z,1.73
2022-11-10T15:19:48.669Z,1.85
2022-11-10T15:22:33.594Z,2.10
2022-11-10T15:25:08.524Z,1.95
2022-11-10T15:27:35.445Z,1.48
2022-11-10T15:30:19.990Z,1.80
2022-11-10T15:32:49.722Z,2.25
2022-11-10T15:35:31.143Z,2.33
2022-11-10T15:38:27.071Z,1.42
2022-11-10T15:41:26.597Z,1.38
2022-11-10T15:43:53.962Z,2.05
2022-11-10T15:46:24.959Z,3.15
2022-11-10T15:48:52.931Z,3.10
2022-11-10T15:51:25.863Z,2.03
2022-11-10T15:53:54.435Z,2.15
2022-11-10T15:56:24.267Z,2.40
2022-11-10T15:59:01.843Z,2.65
2022-11-10T16:01:30.577Z,2.10
2022-11-10T16:03:57.394Z,2.13
2022-11-10T16:06:24.109Z,1.90
2022-11-10T16:08:50.870Z,2.83
2022-11-10T16:11:20.886Z,2.95
2022-11-10T16:13:50.329Z,2.78
2022-11-10T16:16:19.144Z,2.78
2022-11-10T16:18:46.453Z,2.47
2022-11-10T16:21:16.010Z,2.60
2022-11-10T16:23:43.816Z,2.35
2022-11-10T16:26:17.956Z,2.70
2022-11-10T16:28:47.776Z,2.70
2022-11-10T16:31:18.056Z,2.38
2022-11-10T16:33:46.732Z,3.08
2022-11-10T16:36:32.180Z,2.83
2022-11-10T16:39:09.544Z,3.33
2022-11-10T16:41:36.322Z,3.40
2022-11-10T16:44:03.456Z,2.58
2022-11-10T16:46:30.785Z,3.03
2022-11-10T16:49:03.656Z,3.60
2022-11-10T16:51:47.189Z,3.47
2022-11-10T16:54:16.167Z,2.42
2022-11-10T16:56:42.983Z,2.75
2022-11-10T16:59:10.548Z,3.20
2022-11-10T17:01:40.392Z,2.97
2022-11-10T17:04:11.719Z,3.17
2022-11-10T17:06:38.501Z,2.80
2022-11-10T17:09:15.410Z,3.13
2022-11-10T17:11:42.153Z,3.13
2022-11-10T17:14:12.173Z,2.70
2022-11-10T17:16:45.930Z,2.78
2022-11-10T17:19:23.389Z,2.30
2022-11-10T17:21:53.877Z,2.53
2022-11-10T17:24:21.015Z,2.50
2022-11-10T17:26:48.262Z,3.10
2022-11-10T17:29:18.274Z,2.55
2022-11-10T17:31:45.511Z,2.47
2022-11-10T17:34:12.932Z,2.75
2022-11-10T17:36:41.185Z,2.67
2022-11-10T17:39:14.449Z,2.75
2022-11-10T17:41:41.230Z,2.38
2022-11-10T17:44:14.383Z,2.88
2022-11-10T17:46:42.656Z,2.60
2022-11-10T17:49:09.916Z,2.72
2022-11-10T17:51:37.338Z,3.22
2022-11-10T17:54:06.001Z,3.22
2022-11-10T17:56:32.905Z,3.65
2022-11-10T17:59:00.954Z,4.72
2022-11-10T18:01:27.912Z,5.05
2022-11-10T18:03:54.987Z,4.22
2022-11-10T18:06:21.992Z,3.80
2022-11-10T18:08:48.767Z,3.78
2022-11-10T18:11:18.642Z,4.20
2022-11-10T18:13:45.991Z,3.22
2022-11-10T18:16:14.202Z,2.95
2022-11-10T18:18:41.793Z,3.20
2022-11-10T18:21:09.735Z,3.78
2022-11-10T18:23:36.653Z,3.65
2022-11-10T18:26:08.555Z,3.63
2022-11-10T18:28:36.175Z,3.40
2022-11-10T18:31:12.718Z,2.97
2022-11-10T18:33:39.996Z,2.85
2022-11-10T18:36:07.361Z,3.20
2022-11-10T18:38:35.134Z,2.80
2022-11-10T18:41:25.925Z,3.58
2022-11-10T18:43:52.875Z,2.95
2022-11-10T18:46:19.657Z,2.58
2022-11-10T18:48:46.998Z,3.08
2022-11-10T18:51:15.103Z,2.92
2022-11-10T18:53:41.918Z,2.50
2022-11-10T18:56:08.857Z,2.75
2022-11-10T18:58:42.412Z,3.10
2022-11-10T19:01:10.861Z,3.00
2022-11-10T19:03:38.000Z,2.60
2022-11-10T19:06:05.874Z,3.08
2022-11-10T19:08:32.657Z,3.22
2022-11-10T19:10:59.649Z,2.80
2022-11-10T19:13:26.631Z,2.72
2022-11-10T19:15:55.725Z,2.83
2022-11-10T19:18:22.490Z,2.75
2022-11-10T19:20:49.289Z,2.70
2022-11-10T19:23:16.017Z,2.65
2022-11-10T19:25:42.745Z,2.40
2022-11-10T19:28:11.420Z,2.42
2022-11-10T19:30:39.490Z,2.60
2022-11-10T19:33:06.492Z,2.72
2022-11-10T19:35:33.318Z,2.40
2022-11-10T19:38:00.255Z,2.15
2022-11-10T19:40:26.994Z,2.78
2022-11-10T19:42:53.890Z,2.28
2022-11-10T19:45:20.670Z,2.90
2022-11-10T19:47:47.356Z,2.58
2022-11-10T19:50:14.075Z,2.15
2022-11-10T19:52:40.776Z,2.53
2022-11-10T19:55:07.865Z,2.25
2022-11-10T19:57:34.613Z,2.60
2022-11-10T20:00:01.321Z,2.60
2022-11-10T20:02:28.097Z,2.00
2022-11-10T20:05:13.057Z,3.17
2022-11-10T20:07:58.279Z,2.85
2022-11-10T20:10:25.004Z,2.17
2022-11-10T20:12:52.037Z,2.63
2022-11-10T20:15:18.802Z,2.42
2022-11-10T20:17:45.592Z,2.33
2022-11-10T20:20:12.628Z,2.25
2022-11-10T20:22:39.573Z,2.45
2022-11-10T20:25:06.839Z,2.45
2022-11-10T20:27:33.648Z,2.03
2022-11-10T20:30:00.425Z,2.03
2022-11-10T20:32:27.723Z,2.40
2022-11-10T20:34:54.437Z,2.35
2022-11-10T20:37:21.153Z,2.42
2022-11-10T20:39:47.900Z,2.70
2022-11-10T20:42:14.677Z,2.80
2022-11-10T20:44:41.537Z,2.47
2022-11-10T20:47:08.452Z,2.50
2022-11-10T20:49:35.423Z,2.65
2022-11-10T20:52:03.176Z,2.63
2022-11-10T20:54:30.306Z,2.28
2022-11-10T20:56:57.053Z,2.47
2022-11-10T20:59:23.965Z,2.13
2022-11-10T21:01:50.799Z,2.72
2022-11-10T21:04:18.187Z,2.78
2022-11-10T21:06:45.121Z,2.60
2022-11-10T21:09:11.927Z,2.08
2022-11-10T21:11:57.020Z,2.53
2022-11-10T21:14:23.798Z,2.63
2022-11-10T21:16:50.604Z,3.05
2022-11-10T21:19:17.367Z,2.13
2022-11-10T21:21:44.305Z,2.67
2022-11-10T21:24:11.586Z,2.75
2022-11-10T21:26:38.360Z,2.00
2022-11-10T21:29:07.826Z,2.38
2022-11-10T21:31:34.797Z,2.50
2022-11-10T21:34:01.549Z,2.78
2022-11-10T21:36:29.731Z,2.53
2022-11-10T21:38:58.348Z,2.45
2022-11-10T21:41:26.234Z,2.38
2022-11-10T21:43:53.155Z,2.53
2022-11-10T21:46:19.999Z,2.30
2022-11-10T21:48:46.897Z,2.35
2022-11-10T21:51:14.380Z,2.38
2022-11-10T21:53:44.109Z,1.92
2022-11-10T21:56:12.167Z,2.03
2022-11-10T21:58:39.764Z,2.25
2022-11-10T22:01:10.778Z,2.08
2022-11-10T22:03:37.968Z,1.90
2022-11-10T22:06:11.046Z,1.95
2022-11-10T22:08:39.908Z,2.03
2022-11-10T22:11:34.996Z,2.05
2022-11-10T22:14:34.150Z,2.42
2022-11-10T22:17:19.604Z,1.95
2022-11-10T22:19:46.351Z,1.65
2022-11-10T22:22:15.985Z,2.00
2022-11-10T22:24:42.732Z,2.10
2022-11-10T22:27:09.699Z,2.45
2022-11-10T22:29:36.410Z,3.15
2022-11-10T22:32:03.911Z,2.38
2022-11-10T22:34:30.658Z,2.95
2022-11-10T22:36:59.351Z,2.53
2022-11-10T22:39:46.414Z,2.47
2022-11-10T22:42:31.781Z,2.75
2022-11-10T22:44:58.745Z,2.47
2022-11-10T22:47:25.467Z,3.58
2022-11-10T22:49:52.173Z,2.88
2022-11-10T22:52:18.944Z,3.17
2022-11-10T22:54:45.696Z,2.80
2022-11-10T22:57:12.408Z,2.92
2022-11-10T22:59:39.140Z,2.80
2022-11-10T23:02:05.859Z,2.38
2022-11-10T23:04:32.570Z,2.22
2022-11-10T23:06:59.340Z,2.22
2022-11-10T23:09:26.143Z,2.20
2022-11-10T23:11:52.855Z,2.60
2022-11-10T23:14:19.585Z,2.00
2022-11-10T23:16:46.282Z,2.42
2022-11-10T23:19:13.068Z,2.42
2022-11-10T23:21:39.864Z,2.00
2022-11-10T23:24:06.982Z,2.72
2022-11-10T23:26:34.871Z,2.40
2022-11-10T23:29:01.670Z,2.38
2022-11-10T23:31:28.605Z,2.38
2022-11-10T23:33:57.716Z,2.53
2022-11-10T23:36:27.336Z,3.10
2022-11-10T23:38:55.050Z,3.00
2022-11-10T23:41:25.888Z,3.10
2022-11-10T23:43:53.685Z,2.40
2022-11-10T23:46:20.453Z,3.05
2022-11-10T23:48:47.191Z,2.80
2022-11-10T23:51:15.258Z,2.38
2022-11-10T23:53:42.402Z,2.45
2022-11-10T23:56:13.090Z,2.25
2022-11-10T23:58:41.568Z,2.50
